createdAt,value
2022-09-10T00:01:36.282Z,5.07
2022-09-10T00:04:07.735Z,5.70
2022-09-10T00:06:38.803Z,5.37
2022-09-10T00:09:07.977Z,5.88
2022-09-10T00:11:38.620Z,5.90
2022-09-10T00:14:11.862Z,6.07
2022-09-10T00:16:39.639Z,5.47
2022-09-10T00:19:07.767Z,5.80
2022-09-10T00:21:37.016Z,5.50
2022-09-10T00:24:05.575Z,5.53
2022-09-10T00:26:39.702Z,5.60
2022-09-10T00:29:10.912Z,5.72
2022-09-10T00:31:39.338Z,5.40
2022-09-10T00:34:07.287Z,6.00
2022-09-10T00:36:40.181Z,5.50
2022-09-10T00:39:14.204Z,5.78
2022-09-10T00:41:45.426Z,5.95
2022-09-10T00:44:39.670Z,6.63
2022-09-10T00:47:27.164Z,5.95
2022-09-10T00:50:02.293Z,5.90
2022-09-10T00:52:30.071Z,6.40
2022-09-10T00:54:59.009Z,5.95
2022-09-10T00:57:28.667Z,5.65
2022-09-10T01:00:01.846Z,5.90
2022-09-10T01:02:33.427Z,5.93
2022-09-10T01:05:03.246Z,5.78
2022-09-10T01:07:33.846Z,5.70
2022-09-10T01:10:15.104Z,5.53
2022-09-10T01:13:04.547Z,5.65
2022-09-10T01:16:27.876Z,5.90
2022-09-10T01:19:02.002Z,5.97
2022-09-10T01:21:37.412Z,6.03
2022-09-10T01:24:26.139Z,5.73
2022-09-10T01:27:24.406Z,6.00
2022-09-10T01:30:09.285Z,6.13
2022-09-10T01:32:57.188Z,5.80
2022-09-10T01:35:39.458Z,6.35
2022-09-10T01:38:14.317Z,6.07
2022-09-10T01:40:43.865Z,6.50
2022-09-10T01:43:15.710Z,6.60
2022-09-10T01:46:06.379Z,6.28
2022-09-10T01:49:10.580Z,5.85
2022-09-10T01:51:45.320Z,5.80
2022-09-10T01:54:48.706Z,6.63
2022-09-10T01:57:28.895Z,6.10
2022-09-10T02:00:14.938Z,6.70
2022-09-10T02:02:51.358Z,6.90
2022-09-10T02:05:23.689Z,7.35
2022-09-10T02:08:02.100Z,6.40
2022-09-10T02:10:32.560Z,6.25
2022-09-10T02:13:00.701Z,6.50
2022-09-10T02:16:03.437Z,6.55
2022-09-10T02:18:40.037Z,6.72
2022-09-10T02:21:08.980Z,6.40
2022-09-10T02:23:42.709Z,6.18
2022-09-10T02:26:16.924Z,6.72
2022-09-10T02:28:45.295Z,6.47
2022-09-10T02:31:15.836Z,6.50
2022-09-10T02:33:45.508Z,6.63
2022-09-10T02:36:13.148Z,6.40
2022-09-10T02:38:40.666Z,6.28
2022-09-10T02:41:10.980Z,6.50
2022-09-10T02:43:38.815Z,6.30
2022-09-10T02:46:09.130Z,6.38
2022-09-10T02:48:38.918Z,6.93
2022-09-10T02:51:09.288Z,6.60
2022-09-10T02:53:38.807Z,7.13
2022-09-10T02:56:08.834Z,6.93
2022-09-10T02:58:37.492Z,6.65
2022-09-10T03:01:19.379Z,6.47
2022-09-10T03:03:56.090Z,6.60
2022-09-10T03:06:24.781Z,6.90
2022-09-10T03:08:57.835Z,7.65
2022-09-10T03:11:27.758Z,6.65
2022-09-10T03:13:56.218Z,6.28
2022-09-10T03:16:24.604Z,6.13
2022-09-10T03:18:54.160Z,6.70
2022-09-10T03:21:25.277Z,6.20
2022-09-10T03:23:57.109Z,7.25
2022-09-10T03:26:30.651Z,6.82
2022-09-10T03:28:58.824Z,6.68
2022-09-10T03:31:29.408Z,6.40
2022-09-10T03:33:59.944Z,6.40
2022-09-10T03:36:31.450Z,6.50
2022-09-10T03:39:00.044Z,6.65
2022-09-10T03:41:33.951Z,6.78
2022-09-10T03:44:01.869Z,6.90
2022-09-10T03:46:29.525Z,7.53
2022-09-10T03:49:02.598Z,6.80
2022-09-10T03:51:35.380Z,6.72
2022-09-10T03:54:04.097Z,7.25
2022-09-10T03:56:33.329Z,6.90
2022-09-10T03:59:00.903Z,7.20
2022-09-10T04:01:29.556Z,6.90
2022-09-10T04:03:57.688Z,7.38
2022-09-10T04:06:28.088Z,7.57
2022-09-10T04:08:59.092Z,7.78
2022-09-10T04:11:28.752Z,8.17
2022-09-10T04:13:59.421Z,8.10
2022-09-10T04:16:28.416Z,7.68
2022-09-10T04:18:56.513Z,7.40
2022-09-10T04:21:24.787Z,7.80
2022-09-10T04:23:56.711Z,7.28
2022-09-10T04:26:25.611Z,6.90
2022-09-10T04:28:53.870Z,7.78
2022-09-10T04:31:22.574Z,7.43
2022-09-10T04:33:53.837Z,7.10
2022-09-10T04:36:25.864Z,7.03
2022-09-10T04:38:53.680Z,7.40
2022-09-10T04:41:23.600Z,7.17
2022-09-10T04:43:51.867Z,7.65
2022-09-10T04:46:19.932Z,8.93
2022-09-10T04:48:52.161Z,7.22
2022-09-10T04:51:26.333Z,7.18
2022-09-10T04:53:55.395Z,7.27
2022-09-10T04:56:28.302Z,7.18
2022-09-10T04:58:57.338Z,7.82
2022-09-10T05:01:25.890Z,7.55
2022-09-10T05:03:56.353Z,7.25
2022-09-10T05:06:24.732Z,8.07
2022-09-10T05:08:52.539Z,7.57
2022-09-10T05:11:20.329Z,7.65
2022-09-10T05:13:53.722Z,8.23
2022-09-10T05:16:23.827Z,9.45
2022-09-10T05:18:51.736Z,7.63
2022-09-10T05:21:22.838Z,7.87
2022-09-10T05:23:52.891Z,8.50
2022-09-10T05:26:23.209Z,8.45
2022-09-10T05:28:54.143Z,7.28
2022-09-10T05:31:22.826Z,8.25
2022-09-10T05:33:50.529Z,8.35
2022-09-10T05:36:18.341Z,8.87
2022-09-10T05:38:48.351Z,7.97
2022-09-10T05:41:17.162Z,7.57
2022-09-10T05:43:48.622Z,8.10
2022-09-10T05:46:16.410Z,7.85
2022-09-10T05:48:47.587Z,7.63
2022-09-10T05:51:18.601Z,7.80
2022-09-10T05:53:47.537Z,7.95
2022-09-10T05:56:15.150Z,7.57
2022-09-10T05:58:45.328Z,8.32
2022-09-10T06:01:15.782Z,8.05
2022-09-10T06:03:44.605Z,6.60
2022-09-10T06:06:12.497Z,7.87
2022-09-10T06:08:44.765Z,8.10
2022-09-10T06:11:24.288Z,7.60
2022-09-10T06:13:51.989Z,7.03
2022-09-10T06:16:22.904Z,7.90
2022-09-10T06:18:50.711Z,7.67
2022-09-10T06:21:28.106Z,8.05
2022-09-10T06:23:58.091Z,6.72
2022-09-10T06:26:28.492Z,7.63
2022-09-10T06:29:00.912Z,7.32
2022-09-10T06:31:29.608Z,7.40
2022-09-10T06:33:59.058Z,7.37
2022-09-10T06:36:29.574Z,7.35
2022-09-10T06:38:58.289Z,8.00
2022-09-10T06:41:27.196Z,7.15
2022-09-10T06:44:13.071Z,7.13
2022-09-10T06:49:31.590Z,7.40
2022-09-10T06:51:59.478Z,6.90
2022-09-10T06:54:27.629Z,8.48
2022-09-10T06:56:59.575Z,8.18
2022-09-10T06:59:29.824Z,7.10
2022-09-10T07:01:58.535Z,7.15
2022-09-10T07:04:26.361Z,6.97
2022-09-10T07:06:55.723Z,7.43
2022-09-10T07:09:23.341Z,6.78
2022-09-10T07:11:59.432Z,6.93
2022-09-10T07:14:30.882Z,7.20
2022-09-10T07:16:58.969Z,6.72
2022-09-10T07:19:29.983Z,7.10
2022-09-10T07:21:57.670Z,7.45
2022-09-10T07:24:25.625Z,7.07
2022-09-10T07:27:13.362Z,7.55
2022-09-10T07:29:43.914Z,8.00
2022-09-10T07:32:15.909Z,7.00
2022-09-10T07:34:46.938Z,13.27
2022-09-10T07:37:18.024Z,7.57
2022-09-10T07:39:50.072Z,7.20
2022-09-10T07:42:18.293Z,8.73
2022-09-10T07:44:48.854Z,7.20
2022-09-10T07:47:18.922Z,7.00
2022-09-10T07:49:49.334Z,8.13
2022-09-10T07:52:19.106Z,6.63
2022-09-10T07:54:51.006Z,7.25
2022-09-10T07:57:20.134Z,8.77
2022-09-10T07:59:48.506Z,7.97
2022-09-10T08:02:20.210Z,7.28
2022-09-10T08:04:54.864Z,7.63
2022-09-10T08:07:23.679Z,9.00
2022-09-10T08:09:51.500Z,7.80
2022-09-10T08:12:20.349Z,6.63
2022-09-10T08:14:50.993Z,6.50
2022-09-10T08:17:21.006Z,7.28
2022-09-10T08:19:51.143Z,7.47
2022-09-10T08:22:20.557Z,6.88
2022-09-10T08:24:55.881Z,7.97
2022-09-10T08:27:28.012Z,6.80
2022-09-10T08:29:57.969Z,7.30
2022-09-10T08:32:25.799Z,7.03
2022-09-10T08:34:58.872Z,7.28
2022-09-10T08:37:32.553Z,7.25
2022-09-10T08:40:01.027Z,7.85
2022-09-10T08:42:43.148Z,7.18
2022-09-10T08:45:19.563Z,7.60
2022-09-10T08:48:10.771Z,6.95
2022-09-10T08:50:47.021Z,7.28
2022-09-10T08:53:26.246Z,6.60
2022-09-10T08:56:02.554Z,6.65
2022-09-10T08:58:44.293Z,6.50
2022-09-10T09:01:32.275Z,6.20
2022-09-10T09:04:06.284Z,6.45
2022-09-10T09:06:44.695Z,6.78
2022-09-10T09:09:15.876Z,5.80
2022-09-10T09:12:17.449Z,6.95
2022-09-10T09:15:18.387Z,6.77
2022-09-10T09:18:00.708Z,7.77
2022-09-10T09:20:54.966Z,6.20
2022-09-10T09:23:47.953Z,6.30
2022-09-10T09:26:37.875Z,6.20
2022-09-10T09:29:32.281Z,5.88
2022-09-10T09:32:05.871Z,9.57
2022-09-10T09:34:44.544Z,6.10
2022-09-10T09:37:32.722Z,6.38
2022-09-10T09:40:25.850Z,6.30
2022-09-10T09:43:15.778Z,6.15
2022-09-10T09:45:44.229Z,5.50
2022-09-10T09:48:19.124Z,6.53
2022-09-10T09:50:50.791Z,5.33
2022-09-10T09:53:27.956Z,4.82
2022-09-10T09:55:58.691Z,4.95
2022-09-10T09:58:28.353Z,5.32
2022-09-10T10:01:05.430Z,4.65
2022-09-10T10:03:39.377Z,5.40
2022-09-10T10:06:09.321Z,4.80
2022-09-10T10:08:38.559Z,4.97
2022-09-10T10:11:18.918Z,5.20
2022-09-10T10:13:53.227Z,5.07
2022-09-10T10:16:40.418Z,4.55
2022-09-10T10:19:28.171Z,4.90
2022-09-10T10:21:58.548Z,4.78
2022-09-10T10:27:37.146Z,5.00
2022-09-10T10:30:18.226Z,4.68
2022-09-10T10:32:58.662Z,6.72
2022-09-10T10:35:56.722Z,5.07
2022-09-10T10:38:47.229Z,3.63
2022-09-10T10:41:24.665Z,4.13
2022-09-10T10:44:07.538Z,3.90
2022-09-10T10:46:56.506Z,4.57
2022-09-10T10:50:06.591Z,3.97
2022-09-10T10:52:53.869Z,4.43
2022-09-10T10:55:28.388Z,4.40
2022-09-10T10:58:13.145Z,4.33
2022-09-10T11:00:47.731Z,5.35
2022-09-10T11:04:02.153Z,4.32
2022-09-10T11:06:39.820Z,4.82
2022-09-10T11:09:16.682Z,5.35
2022-09-10T11:11:52.899Z,4.50
2022-09-10T11:14:30.413Z,4.53
2022-09-10T11:17:12.508Z,4.10
2022-09-10T11:20:05.318Z,7.13
2022-09-10T11:23:01.187Z,3.83
2022-09-10T11:25:32.790Z,3.92
2022-09-10T11:28:10.378Z,5.23
2022-09-10T11:30:41.784Z,4.30
2022-09-10T11:33:25.634Z,4.55
2022-09-10T11:36:15.947Z,3.88
2022-09-10T11:38:53.242Z,3.80
2022-09-10T11:41:28.873Z,4.67
2022-09-10T11:44:04.900Z,4.50
2022-09-10T11:46:45.386Z,4.35
2022-09-10T11:49:21.907Z,4.35
2022-09-10T11:51:50.517Z,4.40
2022-09-10T11:54:32.561Z,5.18
2022-09-10T11:57:32.368Z,4.43
2022-09-10T12:00:01.047Z,4.87
2022-09-10T12:02:59.374Z,4.88
2022-09-10T12:05:53.692Z,5.32
2022-09-10T12:08:33.718Z,4.60
2022-09-10T12:11:35.485Z,4.57
2022-09-10T12:14:17.187Z,4.70
2022-09-10T12:16:56.990Z,3.73
2022-09-10T12:19:33.780Z,4.80
2022-09-10T12:22:09.449Z,4.43
2022-09-10T12:24:39.834Z,4.95
2022-09-10T12:27:15.620Z,4.65
2022-09-10T12:29:43.495Z,4.77
2022-09-10T12:32:27.303Z,5.20
2022-09-10T12:35:41.687Z,5.47
2022-09-10T12:38:47.964Z,5.53
2022-09-10T12:41:22.494Z,5.47
2022-09-10T12:43:52.464Z,5.40
2022-09-10T12:46:25.887Z,5.60
2022-09-10T12:48:56.927Z,6.07
2022-09-10T12:51:33.002Z,5.28
2022-09-10T12:54:29.050Z,6.30
2022-09-10T12:57:22.369Z,6.20
2022-09-10T13:00:22.531Z,5.90
2022-09-10T13:03:09.811Z,6.10
2022-09-10T13:05:54.432Z,5.13
2022-09-10T13:08:31.013Z,5.00
2022-09-10T13:10:59.165Z,4.95
2022-09-10T13:13:45.675Z,5.00
2022-09-10T13:16:44.984Z,5.13
2022-09-10T13:19:19.703Z,5.03
2022-09-10T13:21:48.305Z,5.87
2022-09-10T13:24:36.486Z,5.25
2022-09-10T13:27:13.720Z,7.55
2022-09-10T13:29:45.433Z,5.20
2022-09-10T13:32:34.779Z,5.72
2022-09-10T13:35:31.863Z,4.82
2022-09-10T13:38:28.510Z,7.00
2022-09-10T13:41:22.336Z,5.40
2022-09-10T13:44:12.842Z,5.20
2022-09-10T13:46:48.562Z,4.85
2022-09-10T13:49:31.725Z,5.22
2022-09-10T13:52:07.995Z,5.90
2022-09-10T13:57:49.461Z,5.78
2022-09-10T14:00:23.861Z,5.13
2022-09-10T14:02:54.683Z,5.28
2022-09-10T14:05:26.709Z,5.18
2022-09-10T14:08:00.662Z,5.60
2022-09-10T14:10:29.107Z,5.03
2022-09-10T14:12:58.429Z,5.30
2022-09-10T14:15:33.729Z,5.97
2022-09-10T14:18:01.769Z,5.80
2022-09-10T14:20:35.122Z,5.68
2022-09-10T14:23:07.072Z,5.00
2022-09-10T14:25:38.728Z,5.30
2022-09-10T14:28:27.709Z,6.05
2022-09-10T14:31:26.772Z,5.85
2022-09-10T14:33:56.598Z,5.70
2022-09-10T14:36:30.906Z,5.83
2022-09-10T14:39:15.936Z,6.07
2022-09-10T14:41:44.273Z,6.00
2022-09-10T14:44:24.632Z,5.70
2022-09-10T14:47:00.233Z,5.80
2022-09-10T14:49:37.005Z,5.50
2022-09-10T14:52:08.664Z,4.50
2022-09-10T14:54:36.783Z,3.83
2022-09-10T14:57:14.305Z,4.88
2022-09-10T14:59:44.072Z,4.57
2022-09-10T15:02:27.523Z,5.30
2022-09-10T15:04:55.954Z,5.63
2022-09-10T15:07:28.027Z,6.67
2022-09-10T15:09:56.267Z,5.70
2022-09-10T15:12:27.077Z,4.97
2022-09-10T15:14:57.354Z,5.07
2022-09-10T15:17:26.234Z,5.20
2022-09-10T15:19:57.322Z,6.30
2022-09-10T15:22:29.990Z,6.00
2022-09-10T15:25:10.431Z,6.30
2022-09-10T15:27:39.069Z,5.70
2022-09-10T15:30:09.140Z,5.97
2022-09-10T15:32:37.015Z,5.57
2022-09-10T15:35:07.608Z,6.20
2022-09-10T15:37:37.867Z,5.60
2022-09-10T15:40:07.489Z,6.15
2022-09-10T15:42:37.210Z,5.90
2022-09-10T15:45:05.630Z,6.63
2022-09-10T15:47:33.969Z,5.83
2022-09-10T15:50:04.567Z,7.70
2022-09-10T15:52:33.445Z,6.53
2022-09-10T15:55:01.177Z,5.60
2022-09-10T15:57:31.179Z,6.00
2022-09-10T16:00:04.211Z,6.22
2022-09-10T16:02:31.794Z,5.60
2022-09-10T16:05:02.841Z,5.83
2022-09-10T16:07:30.847Z,5.90
2022-09-10T16:09:59.884Z,5.95
2022-09-10T16:12:28.184Z,5.82
2022-09-10T16:14:56.391Z,6.28
2022-09-10T16:17:25.712Z,6.63
2022-09-10T16:19:59.447Z,6.07
2022-09-10T16:22:30.690Z,5.70
2022-09-10T16:24:59.726Z,5.03
2022-09-10T16:27:30.424Z,5.63
2022-09-10T16:30:01.537Z,5.40
2022-09-10T16:32:31.776Z,5.65
2022-09-10T16:35:00.846Z,4.97
2022-09-10T16:37:28.610Z,5.43
2022-09-10T16:39:56.721Z,5.72
2022-09-10T16:42:25.458Z,6.13
2022-09-10T16:44:53.372Z,5.90
2022-09-10T16:47:21.336Z,13.10
2022-09-10T16:49:49.186Z,6.07
2022-09-10T16:52:17.068Z,5.60
2022-09-10T16:54:46.688Z,6.45
2022-09-10T16:57:14.464Z,5.55
2022-09-10T16:59:42.121Z,6.00
2022-09-10T17:02:10.463Z,6.17
2022-09-10T17:04:39.095Z,5.63
2022-09-10T17:07:07.590Z,5.97
2022-09-10T17:12:19.098Z,6.65
2022-09-10T17:14:59.178Z,6.38
2022-09-10T17:17:27.519Z,6.60
2022-09-10T17:19:57.159Z,6.67
2022-09-10T17:22:24.835Z,6.28
2022-09-10T17:24:57.100Z,7.93
2022-09-10T17:27:30.810Z,7.60
2022-09-10T17:29:58.720Z,6.10
2022-09-10T17:32:27.533Z,6.47
2022-09-10T17:37:43.597Z,7.25
2022-09-10T17:40:12.429Z,6.13
2022-09-10T17:42:40.755Z,8.05
2022-09-10T17:45:13.332Z,8.77
2022-09-10T17:47:41.022Z,7.10
2022-09-10T17:50:09.691Z,7.13
2022-09-10T17:52:37.607Z,6.85
2022-09-10T17:55:24.179Z,7.38
2022-09-10T17:58:02.801Z,7.78
2022-09-10T18:00:32.636Z,7.37
2022-09-10T18:03:03.977Z,6.97
2022-09-10T18:05:31.873Z,7.80
2022-09-10T18:07:59.658Z,6.88
2022-09-10T18:10:27.262Z,7.60
2022-09-10T18:12:58.358Z,7.53
2022-09-10T18:15:30.785Z,7.50
2022-09-10T18:17:59.897Z,7.85
2022-09-10T18:20:29.449Z,7.28
2022-09-10T18:23:03.722Z,6.57
2022-09-10T18:25:36.073Z,7.07
2022-09-10T18:28:04.697Z,7.17
2022-09-10T18:30:34.813Z,6.77
2022-09-10T18:33:02.525Z,6.00
2022-09-10T18:35:32.089Z,6.13
2022-09-10T18:38:00.124Z,5.53
2022-09-10T18:40:28.705Z,5.20
2022-09-10T18:42:56.306Z,4.80
2022-09-10T18:45:24.171Z,5.57
2022-09-10T18:47:52.996Z,4.47
2022-09-10T18:50:22.897Z,3.70
2022-09-10T18:52:50.518Z,2.67
2022-09-10T18:55:18.196Z,3.17
2022-09-10T18:57:48.807Z,2.43
2022-09-10T19:00:16.900Z,2.43
2022-09-10T19:02:45.914Z,2.20
2022-09-10T19:05:14.571Z,2.50
2022-09-10T19:07:43.711Z,2.60
2022-09-10T19:10:11.930Z,8.80
2022-09-10T19:12:52.246Z,3.00
2022-09-10T19:15:19.875Z,2.63
2022-09-10T19:17:51.803Z,2.63
2022-09-10T19:20:20.371Z,2.67
2022-09-10T19:22:48.461Z,3.33
2022-09-10T19:25:18.063Z,3.03
2022-09-10T19:27:46.002Z,3.17
2022-09-10T19:30:14.964Z,3.63
2022-09-10T19:32:43.855Z,3.28
2022-09-10T19:35:12.968Z,2.67
2022-09-10T19:37:42.810Z,3.45
2022-09-10T19:40:14.950Z,3.72
2022-09-10T19:42:42.850Z,3.50
2022-09-10T19:45:12.918Z,3.67
2022-09-10T19:47:40.693Z,3.25
2022-09-10T19:50:09.283Z,2.95
2022-09-10T19:52:41.163Z,3.65
2022-09-10T19:55:09.513Z,4.30
2022-09-10T19:57:37.417Z,3.87
2022-09-10T20:00:07.984Z,3.70
2022-09-10T20:02:44.248Z,3.25
2022-09-10T20:05:11.936Z,3.33
2022-09-10T20:07:39.916Z,2.92
2022-09-10T20:10:10.924Z,3.60
2022-09-10T20:12:39.098Z,4.13
2022-09-10T20:15:07.981Z,3.55
2022-09-10T20:17:38.642Z,3.17
2022-09-10T20:20:07.669Z,2.97
2022-09-10T20:22:38.630Z,2.90
2022-09-10T20:25:07.184Z,3.17
2022-09-10T20:27:34.883Z,6.47
2022-09-10T20:30:07.105Z,4.90
2022-09-10T20:32:34.774Z,3.70
2022-09-10T20:35:05.745Z,3.30
2022-09-10T20:37:37.054Z,3.40
2022-09-10T20:40:08.845Z,3.20
2022-09-10T20:42:39.656Z,3.40
2022-09-10T20:45:08.027Z,3.92
2022-09-10T20:47:43.540Z,3.28
2022-09-10T20:50:14.994Z,3.43
2022-09-10T20:52:43.869Z,3.53
2022-09-10T20:55:17.875Z,3.92
2022-09-10T20:57:45.658Z,3.58
2022-09-10T21:00:19.510Z,3.60
2022-09-10T21:02:50.471Z,3.80
2022-09-10T21:05:20.938Z,4.03
2022-09-10T21:07:50.433Z,3.72
2022-09-10T21:10:23.602Z,4.15
2022-09-10T21:12:51.353Z,5.03
2022-09-10T21:15:21.232Z,4.78
2022-09-10T21:17:49.239Z,3.37
2022-09-10T21:20:17.235Z,3.92
2022-09-10T21:22:45.339Z,4.38
2022-09-10T21:25:13.275Z,4.45
2022-09-10T21:27:43.465Z,4.75
2022-09-10T21:30:12.763Z,3.93
2022-09-10T21:32:40.913Z,4.10
2022-09-10T21:35:37.035Z,3.60
2022-09-10T21:38:15.474Z,3.70
2022-09-10T21:40:58.731Z,3.30
2022-09-10T22:28:21.616Z,5.90
2022-09-10T22:30:52.330Z,6.53
2022-09-10T22:33:22.904Z,6.18
2022-09-10T22:35:50.659Z,5.93
2022-09-10T22:38:20.716Z,6.30
2022-09-10T22:40:53.965Z,5.75
2022-09-10T22:43:21.774Z,6.47
2022-09-10T22:45:49.562Z,5.60
2022-09-10T22:48:20.261Z,6.38
2022-09-10T22:50:48.098Z,6.38
2022-09-10T22:53:16.689Z,5.32
2022-09-10T22:55:44.632Z,5.28
2022-09-10T22:58:16.918Z,5.77
2022-09-10T23:00:45.128Z,5.32
2022-09-10T23:03:13.028Z,5.63
2022-09-10T23:05:40.970Z,5.97
2022-09-10T23:08:08.624Z,5.13
2022-09-10T23:10:36.466Z,5.87
2022-09-10T23:13:04.534Z,5.00
2022-09-10T23:15:33.365Z,5.15
2022-09-10T23:18:05.865Z,4.80
2022-09-10T23:20:33.581Z,5.70
2022-09-10T23:23:01.401Z,5.75
2022-09-10T23:25:31.660Z,5.00
2022-09-10T23:28:03.338Z,5.90
2022-09-10T23:30:38.304Z,4.90
2022-09-10T23:33:08.292Z,5.30
2022-09-10T23:35:36.009Z,4.93
2022-09-10T23:38:03.634Z,5.00
2022-09-10T23:40:34.193Z,5.20
2022-09-10T23:43:02.074Z,4.70
2022-09-10T23:45:30.510Z,5.10
2022-09-10T23:47:59.803Z,4.47
2022-09-10T23:50:29.313Z,4.43
2022-09-10T23:52:57.473Z,4.30
2022-09-10T23:55:28.173Z,3.90
2022-09-10T23:57:55.772Z,4.18
